createdAt,value
2022-10-12T00:00:59.353Z,17.14
2022-10-12T00:01:59.418Z,17.17
2022-10-12T00:02:59.245Z,17.22
2022-10-12T00:03:59.189Z,17.17
2022-10-12T00:04:59.139Z,17.25
2022-10-12T00:05:59.084Z,17.18
2022-10-12T00:06:59.033Z,17.22
2022-10-12T00:07:58.978Z,17.17
2022-10-12T00:08:58.927Z,17.20
2022-10-12T00:09:58.872Z,17.18
2022-10-12T00:10:58.826Z,17.15
2022-10-12T00:11:58.771Z,17.15
2022-10-12T00:12:58.718Z,17.17
2022-10-12T00:13:58.671Z,17.22
2022-10-12T00:14:58.610Z,17.23
2022-10-12T00:15:58.557Z,17.17
2022-10-12T00:16:58.507Z,17.20
2022-10-12T00:17:58.461Z,17.15
2022-10-12T00:18:58.402Z,17.17
2022-10-12T00:19:58.349Z,17.17
2022-10-12T00:20:58.295Z,17.18
2022-10-12T00:21:58.239Z,17.20
2022-10-12T00:22:58.191Z,17.15
2022-10-12T00:23:58.134Z,17.13
2022-10-12T00:24:58.082Z,17.18
2022-10-12T00:25:58.029Z,17.17
2022-10-12T00:26:57.979Z,17.14
2022-10-12T00:27:57.923Z,17.14
2022-10-12T00:28:57.925Z,17.20
2022-10-12T00:29:57.817Z,17.22
2022-10-12T00:30:57.766Z,17.11
2022-10-12T00:31:57.714Z,17.13
2022-10-12T00:32:57.661Z,17.13
2022-10-12T00:33:57.612Z,17.20
2022-10-12T00:34:57.555Z,17.15
2022-10-12T00:35:57.502Z,17.18
2022-10-12T00:36:57.450Z,17.17
2022-10-12T00:37:57.394Z,17.15
2022-10-12T00:38:57.344Z,17.13
2022-10-12T00:39:57.289Z,17.11
2022-10-12T00:40:57.237Z,17.18
2022-10-12T00:41:57.197Z,17.10
2022-10-12T00:42:58.786Z,17.17
2022-10-12T00:43:58.789Z,17.17
2022-10-12T00:44:57.029Z,17.13
2022-10-12T00:45:56.971Z,17.15
2022-10-12T00:46:56.920Z,17.10
2022-10-12T00:47:56.867Z,17.14
2022-10-12T00:48:56.815Z,17.13
2022-10-12T00:49:56.767Z,17.15
2022-10-12T00:50:56.710Z,17.15
2022-10-12T00:51:56.660Z,17.13
2022-10-12T00:52:56.611Z,17.13
2022-10-12T00:53:56.551Z,17.13
2022-10-12T00:54:56.500Z,17.14
2022-10-12T00:55:56.444Z,17.15
2022-10-12T00:56:56.392Z,17.13
2022-10-12T00:57:56.350Z,17.14
2022-10-12T00:58:56.287Z,17.18
2022-10-12T00:59:56.234Z,17.11
2022-10-12T01:00:56.222Z,17.11
2022-10-12T01:01:56.134Z,17.13
2022-10-12T01:02:56.076Z,17.13
2022-10-12T01:03:56.022Z,17.11
2022-10-12T01:04:55.969Z,17.14
2022-10-12T01:05:55.922Z,17.15
2022-10-12T01:06:55.864Z,17.18
2022-10-12T01:07:55.811Z,17.17
2022-10-12T01:08:55.762Z,17.14
2022-10-12T01:09:55.703Z,17.14
2022-10-12T01:10:55.655Z,17.18
2022-10-12T01:11:55.599Z,17.10
2022-10-12T01:12:55.546Z,17.11
2022-10-12T01:13:55.494Z,17.06
2022-10-12T01:14:55.445Z,17.14
2022-10-12T01:15:55.387Z,17.15
2022-10-12T01:16:55.338Z,17.14
2022-10-12T01:17:55.285Z,17.07
2022-10-12T01:18:55.233Z,17.10
2022-10-12T01:19:57.328Z,17.14
2022-10-12T01:20:55.121Z,17.15
2022-10-12T01:21:55.079Z,17.06
2022-10-12T01:22:55.017Z,17.15
2022-10-12T01:23:54.965Z,17.14
2022-10-12T01:24:54.910Z,17.08
2022-10-12T01:25:54.861Z,17.07
2022-10-12T01:26:54.805Z,17.10
2022-10-12T01:27:54.754Z,17.07
2022-10-12T01:28:54.814Z,17.08
2022-10-12T01:29:54.649Z,17.10
2022-10-12T01:30:54.595Z,17.08
2022-10-12T01:31:54.542Z,17.10
2022-10-12T01:32:54.491Z,17.10
2022-10-12T01:33:54.438Z,17.08
2022-10-12T01:34:54.384Z,17.11
2022-10-12T01:35:54.333Z,17.11
2022-10-12T01:36:54.280Z,17.10
2022-10-12T01:37:54.233Z,17.07
2022-10-12T01:38:54.172Z,17.03
2022-10-12T01:39:54.120Z,17.11
2022-10-12T01:40:54.067Z,17.08
2022-10-12T01:41:54.016Z,17.07
2022-10-12T01:42:53.960Z,17.10
2022-10-12T01:43:53.907Z,17.14
2022-10-12T01:44:53.853Z,17.10
2022-10-12T01:45:53.805Z,17.06
2022-10-12T01:46:53.749Z,17.10
2022-10-12T01:47:53.699Z,17.06
2022-10-12T01:48:53.643Z,17.08
2022-10-12T01:49:53.594Z,17.06
2022-10-12T01:50:53.540Z,16.99
2022-10-12T01:51:53.486Z,17.10
2022-10-12T01:52:53.432Z,17.04
2022-10-12T01:53:53.397Z,17.00
2022-10-12T01:54:53.325Z,17.06
2022-10-12T01:55:53.274Z,17.00
2022-10-12T01:56:53.219Z,16.98
2022-10-12T01:57:53.167Z,17.04
2022-10-12T01:58:53.114Z,17.03
2022-10-12T01:59:53.061Z,17.04
2022-10-12T02:00:53.070Z,16.99
2022-10-12T02:01:52.959Z,17.00
2022-10-12T02:02:52.903Z,17.04
2022-10-12T02:03:52.850Z,16.99
2022-10-12T02:04:52.796Z,17.03
2022-10-12T02:05:52.748Z,16.99
2022-10-12T02:06:52.693Z,16.99
2022-10-12T02:07:52.641Z,17.03
2022-10-12T02:08:52.585Z,17.00
2022-10-12T02:09:52.540Z,17.00
2022-10-12T02:10:52.481Z,17.00
2022-10-12T02:11:52.427Z,16.96
2022-10-12T02:12:52.374Z,17.00
2022-10-12T02:13:52.327Z,17.04
2022-10-12T02:14:52.271Z,17.00
2022-10-12T02:15:52.215Z,17.03
2022-10-12T02:16:52.162Z,17.06
2022-10-12T02:17:52.110Z,17.00
2022-10-12T02:18:52.055Z,17.00
2022-10-12T02:19:52.005Z,16.98
2022-10-12T02:20:51.950Z,17.04
2022-10-12T02:21:51.898Z,16.99
2022-10-12T02:22:51.845Z,17.03
2022-10-12T02:23:51.795Z,16.98
2022-10-12T02:24:51.737Z,16.96
2022-10-12T02:25:51.695Z,17.03
2022-10-12T02:26:51.632Z,17.00
2022-10-12T02:27:51.581Z,16.98
2022-10-12T02:28:51.570Z,16.95
2022-10-12T02:29:51.475Z,17.07
2022-10-12T02:30:51.428Z,16.93
2022-10-12T02:31:51.371Z,16.96
2022-10-12T02:32:51.315Z,17.00
2022-10-12T02:33:51.268Z,17.00
2022-10-12T02:34:51.210Z,17.04
2022-10-12T02:35:51.159Z,16.98
2022-10-12T02:36:51.104Z,17.03
2022-10-12T02:37:51.054Z,17.00
2022-10-12T02:38:50.998Z,17.06
2022-10-12T02:39:50.948Z,16.98
2022-10-12T02:40:50.890Z,17.00
2022-10-12T02:41:50.847Z,16.96
2022-10-12T02:43:09.415Z,17.00
2022-10-12T02:43:50.737Z,17.00
2022-10-12T02:44:50.681Z,16.99
2022-10-12T02:45:50.632Z,16.98
2022-10-12T02:46:50.574Z,16.96
2022-10-12T02:47:50.525Z,16.99
2022-10-12T02:48:50.470Z,16.99
2022-10-12T02:49:50.417Z,16.95
2022-10-12T02:50:50.362Z,16.98
2022-10-12T02:51:50.312Z,16.99
2022-10-12T02:52:50.257Z,16.93
2022-10-12T02:53:50.256Z,16.90
2022-10-12T02:54:50.154Z,17.00
2022-10-12T02:55:50.100Z,16.89
2022-10-12T02:56:50.044Z,16.93
2022-10-12T02:57:50.001Z,16.92
2022-10-12T02:58:49.940Z,16.92
2022-10-12T02:59:49.888Z,16.89
2022-10-12T03:00:49.889Z,16.92
2022-10-12T03:01:49.782Z,16.98
2022-10-12T03:02:49.729Z,16.92
2022-10-12T03:03:49.679Z,16.95
2022-10-12T03:04:49.623Z,16.93
2022-10-12T03:05:49.572Z,16.99
2022-10-12T03:06:49.526Z,16.98
2022-10-12T03:07:49.464Z,16.88
2022-10-12T03:08:49.409Z,16.95
2022-10-12T03:09:49.359Z,16.88
2022-10-12T03:10:49.390Z,16.96
2022-10-12T03:11:49.251Z,16.95
2022-10-12T03:12:50.361Z,16.90
2022-10-12T03:13:49.150Z,16.93
2022-10-12T03:14:49.091Z,16.96
2022-10-12T03:15:49.038Z,16.88
2022-10-12T03:16:48.985Z,16.99
2022-10-12T03:17:48.936Z,16.95
2022-10-12T03:18:48.880Z,16.96
2022-10-12T03:19:48.830Z,16.85
2022-10-12T03:20:48.774Z,16.93
2022-10-12T03:21:48.722Z,16.93
2022-10-12T03:22:48.670Z,16.95
2022-10-12T03:23:48.618Z,16.88
2022-10-12T03:24:48.571Z,16.93
2022-10-12T03:25:48.512Z,16.95
2022-10-12T03:26:48.458Z,16.83
2022-10-12T03:27:48.404Z,16.88
2022-10-12T03:28:48.350Z,16.93
2022-10-12T03:29:48.305Z,16.86
2022-10-12T03:30:48.291Z,16.90
2022-10-12T03:31:48.193Z,16.88
2022-10-12T03:32:48.141Z,16.95
2022-10-12T03:33:48.089Z,16.95
2022-10-12T03:34:48.038Z,16.89
2022-10-12T03:35:47.985Z,16.92
2022-10-12T03:36:47.926Z,16.98
2022-10-12T03:37:47.877Z,16.86
2022-10-12T03:38:47.823Z,16.88
2022-10-12T03:39:47.769Z,16.95
2022-10-12T03:40:47.715Z,16.83
2022-10-12T03:41:47.663Z,16.92
2022-10-12T03:42:47.620Z,16.88
2022-10-12T03:43:47.558Z,16.85
2022-10-12T03:44:47.501Z,16.89
2022-10-12T03:45:47.455Z,16.88
2022-10-12T03:46:47.401Z,16.90
2022-10-12T03:47:47.346Z,16.92
2022-10-12T03:48:47.289Z,16.93
2022-10-12T03:49:47.241Z,16.89
2022-10-12T03:50:47.185Z,16.88
2022-10-12T03:51:47.135Z,16.80
2022-10-12T03:52:47.080Z,16.92
2022-10-12T03:53:47.029Z,16.73
2022-10-12T03:54:46.974Z,16.77
2022-10-12T03:55:46.924Z,16.89
2022-10-12T03:56:46.870Z,16.86
2022-10-12T03:57:46.820Z,16.86
2022-10-12T03:58:46.770Z,16.80
2022-10-12T03:59:46.709Z,16.88
2022-10-12T04:00:46.657Z,16.88
2022-10-12T04:01:46.649Z,16.81
2022-10-12T04:02:46.553Z,16.85
2022-10-12T04:03:46.497Z,16.77
2022-10-12T04:04:46.443Z,16.90
2022-10-12T04:05:46.392Z,16.86
2022-10-12T04:06:46.337Z,16.86
2022-10-12T04:07:46.283Z,16.80
2022-10-12T04:08:50.597Z,16.83
2022-10-12T04:09:46.180Z,16.83
2022-10-12T04:10:46.126Z,16.85
2022-10-12T04:11:46.072Z,16.73
2022-10-12T04:12:46.022Z,16.89
2022-10-12T04:13:45.969Z,16.89
2022-10-12T04:14:45.912Z,16.77
2022-10-12T04:15:45.866Z,16.86
2022-10-12T04:16:45.819Z,16.89
2022-10-12T04:17:45.760Z,16.88
2022-10-12T04:18:45.703Z,16.86
2022-10-12T04:19:45.650Z,16.83
2022-10-12T04:20:45.596Z,16.83
2022-10-12T04:21:45.545Z,16.83
2022-10-12T04:22:45.510Z,16.86
2022-10-12T04:23:45.436Z,16.88
2022-10-12T04:24:45.385Z,16.80
2022-10-12T04:25:45.334Z,16.85
2022-10-12T04:26:45.276Z,16.75
2022-10-12T04:27:45.223Z,16.80
2022-10-12T04:28:45.204Z,16.83
2022-10-12T04:29:45.118Z,16.73
2022-10-12T04:30:45.063Z,16.81
2022-10-12T04:31:45.027Z,16.77
2022-10-12T04:32:44.956Z,16.85
2022-10-12T04:33:44.914Z,16.75
2022-10-12T04:34:44.853Z,16.80
2022-10-12T04:35:44.800Z,16.80
2022-10-12T04:36:44.745Z,16.75
2022-10-12T04:37:44.694Z,16.75
2022-10-12T04:38:44.639Z,16.75
2022-10-12T04:39:44.588Z,16.80
2022-10-12T04:40:44.535Z,16.77
2022-10-12T04:41:44.482Z,16.80
2022-10-12T04:42:44.432Z,16.83
2022-10-12T04:43:44.374Z,16.78
2022-10-12T04:44:44.319Z,16.78
2022-10-12T04:45:44.270Z,16.80
2022-10-12T04:46:44.215Z,16.78
2022-10-12T04:47:44.168Z,16.78
2022-10-12T04:48:44.109Z,16.78
2022-10-12T04:49:44.065Z,16.78
2022-10-12T04:50:44.003Z,16.78
2022-10-12T04:51:43.950Z,16.74
2022-10-12T04:52:43.895Z,16.78
2022-10-12T04:53:43.845Z,16.78
2022-10-12T04:54:43.792Z,16.73
2022-10-12T04:55:43.737Z,16.65
2022-10-12T04:56:47.644Z,16.74
2022-10-12T04:57:43.631Z,16.77
2022-10-12T04:58:43.581Z,16.77
2022-10-12T04:59:43.528Z,16.75
2022-10-12T05:00:43.472Z,16.77
2022-10-12T05:01:43.496Z,16.71
2022-10-12T05:02:43.365Z,16.78
2022-10-12T05:03:43.313Z,16.75
2022-10-12T05:04:43.258Z,16.78
2022-10-12T05:05:43.216Z,16.75
2022-10-12T05:06:43.157Z,16.70
2022-10-12T05:07:43.103Z,16.74
2022-10-12T05:08:43.053Z,16.67
2022-10-12T05:09:42.995Z,16.74
2022-10-12T05:10:42.940Z,16.73
2022-10-12T05:11:42.889Z,16.60
2022-10-12T05:12:42.837Z,16.70
2022-10-12T05:13:42.782Z,16.74
2022-10-12T05:14:42.741Z,16.68
2022-10-12T05:15:42.690Z,16.67
2022-10-12T05:16:42.623Z,16.65
2022-10-12T05:17:42.570Z,16.65
2022-10-12T05:18:42.516Z,16.67
2022-10-12T05:19:42.467Z,16.63
2022-10-12T05:20:42.408Z,16.70
2022-10-12T05:21:42.365Z,16.68
2022-10-12T05:22:42.307Z,16.68
2022-10-12T05:23:42.254Z,16.68
2022-10-12T05:24:42.196Z,16.63
2022-10-12T05:25:42.147Z,16.74
2022-10-12T05:26:42.091Z,16.63
2022-10-12T05:27:42.041Z,16.71
2022-10-12T05:28:42.059Z,16.62
2022-10-12T05:29:41.932Z,16.68
2022-10-12T05:30:41.878Z,16.67
2022-10-12T05:31:41.826Z,16.67
2022-10-12T05:32:41.916Z,16.68
2022-10-12T05:33:41.722Z,16.70
2022-10-12T05:34:41.669Z,16.73
2022-10-12T05:35:46.640Z,16.68
2022-10-12T05:36:41.561Z,16.63
2022-10-12T05:37:41.633Z,16.77
2022-10-12T05:38:41.456Z,16.71
2022-10-12T05:39:41.400Z,16.70
2022-10-12T05:40:41.349Z,16.75
2022-10-12T05:41:41.296Z,16.63
2022-10-12T05:42:41.618Z,16.71
2022-10-12T05:43:41.187Z,16.71
2022-10-12T05:44:41.136Z,16.67
2022-10-12T05:45:41.084Z,16.67
2022-10-12T05:46:41.032Z,16.73
2022-10-12T05:47:41.210Z,16.70
2022-10-12T05:48:40.927Z,16.70
2022-10-12T05:49:40.869Z,16.68
2022-10-12T05:50:40.821Z,16.67
2022-10-12T05:51:40.764Z,16.65
2022-10-12T05:52:41.070Z,16.68
2022-10-12T05:53:40.664Z,16.67
2022-10-12T05:54:40.607Z,16.65
2022-10-12T05:55:40.554Z,16.68
2022-10-12T05:56:40.498Z,16.65
2022-10-12T05:57:40.445Z,16.68
2022-10-12T05:58:40.394Z,16.70
2022-10-12T05:59:40.369Z,16.71
2022-10-12T06:00:40.285Z,16.68
2022-10-12T06:01:40.354Z,16.60
2022-10-12T06:02:40.500Z,16.65
2022-10-12T06:03:40.127Z,16.71
2022-10-12T06:04:40.072Z,16.65
2022-10-12T06:05:40.019Z,16.71
2022-10-12T06:06:39.968Z,16.71
2022-10-12T06:07:39.912Z,16.67
2022-10-12T06:08:39.859Z,16.65
2022-10-12T06:09:39.811Z,16.68
2022-10-12T06:10:39.790Z,16.59
2022-10-12T06:11:39.706Z,16.73
2022-10-12T06:12:40.165Z,16.67
2022-10-12T06:13:39.598Z,16.67
2022-10-12T06:14:39.545Z,16.62
2022-10-12T06:15:39.487Z,16.65
2022-10-12T06:16:39.436Z,16.75
2022-10-12T06:17:39.380Z,16.73
2022-10-12T06:18:39.330Z,16.70
2022-10-12T06:19:39.276Z,16.70
2022-10-12T06:20:39.224Z,16.59
2022-10-12T06:21:39.168Z,16.63
2022-10-12T06:22:39.647Z,16.70
2022-10-12T06:23:39.061Z,16.60
2022-10-12T06:24:39.010Z,16.63
2022-10-12T06:25:38.965Z,16.62
2022-10-12T06:26:38.907Z,16.71
2022-10-12T06:27:38.849Z,16.63
2022-10-12T06:28:38.828Z,16.68
2022-10-12T06:29:38.743Z,16.75
2022-10-12T06:30:38.692Z,16.71
2022-10-12T06:31:38.638Z,16.67
2022-10-12T06:32:38.836Z,16.68
2022-10-12T06:33:38.530Z,16.73
2022-10-12T06:34:38.482Z,16.67
2022-10-12T06:35:38.430Z,16.70
2022-10-12T06:36:38.371Z,16.59
2022-10-12T06:37:49.566Z,16.60
2022-10-12T06:38:38.277Z,16.68
2022-10-12T06:39:38.216Z,16.68
2022-10-12T06:40:38.160Z,16.63
2022-10-12T06:41:38.112Z,16.68
2022-10-12T06:42:38.319Z,16.67
2022-10-12T06:43:37.997Z,16.65
2022-10-12T06:44:37.947Z,16.67
2022-10-12T06:45:37.893Z,16.68
2022-10-12T06:46:37.841Z,16.63
2022-10-12T06:47:37.787Z,16.70
2022-10-12T06:48:37.736Z,16.68
2022-10-12T06:49:37.685Z,16.71
2022-10-12T06:50:37.628Z,16.68
2022-10-12T06:51:37.574Z,16.74
2022-10-12T06:52:37.802Z,16.71
2022-10-12T06:53:37.466Z,16.67
2022-10-12T06:54:37.415Z,16.68
2022-10-12T06:55:37.361Z,16.71
2022-10-12T06:56:37.310Z,16.68
2022-10-12T06:57:37.272Z,16.63
2022-10-12T06:58:37.202Z,16.67
2022-10-12T06:59:37.147Z,16.67
2022-10-12T07:00:37.099Z,16.73
2022-10-12T07:01:37.114Z,16.65
2022-10-12T07:02:37.343Z,16.73
2022-10-12T07:03:36.934Z,16.59
2022-10-12T07:04:36.891Z,16.73
2022-10-12T07:05:36.831Z,16.73
2022-10-12T07:06:36.777Z,16.67
2022-10-12T07:07:36.723Z,16.63
2022-10-12T07:08:36.674Z,16.70
2022-10-12T07:09:36.616Z,16.56
2022-10-12T07:10:36.568Z,16.67
2022-10-12T07:11:36.508Z,16.63
2022-10-12T07:12:36.782Z,16.71
2022-10-12T07:13:36.411Z,16.60
2022-10-12T07:14:36.351Z,16.75
2022-10-12T07:15:36.298Z,16.63
2022-10-12T07:16:36.244Z,16.73
2022-10-12T07:17:36.496Z,16.71
2022-10-12T07:18:36.143Z,16.65
2022-10-12T07:19:36.104Z,16.75
2022-10-12T07:20:36.032Z,16.71
2022-10-12T07:21:35.985Z,16.67
2022-10-12T07:22:35.927Z,16.67
2022-10-12T07:23:35.871Z,16.67
2022-10-12T07:24:35.829Z,16.70
2022-10-12T07:25:35.765Z,16.67
2022-10-12T07:26:36.373Z,16.62
2022-10-12T07:27:35.817Z,16.70
2022-10-12T07:28:35.642Z,16.70
2022-10-12T07:29:35.559Z,16.68
2022-10-12T07:30:35.502Z,16.78
2022-10-12T07:31:35.454Z,16.75
2022-10-12T07:32:35.396Z,16.68
2022-10-12T07:33:35.338Z,16.65
2022-10-12T07:34:35.287Z,16.70
2022-10-12T07:35:37.838Z,16.63
2022-10-12T07:36:57.612Z,16.67
2022-10-12T07:37:35.128Z,16.62
2022-10-12T07:38:35.076Z,16.65
2022-10-12T07:39:35.019Z,16.68
2022-10-12T07:40:34.971Z,16.71
2022-10-12T07:41:34.913Z,16.71
2022-10-12T07:42:34.868Z,16.67
2022-10-12T07:43:34.807Z,16.65
2022-10-12T07:44:34.768Z,16.68
2022-10-12T07:45:34.710Z,16.63
2022-10-12T07:46:34.654Z,16.73
2022-10-12T07:47:34.595Z,16.70
2022-10-12T07:48:34.546Z,16.68
2022-10-12T07:49:34.489Z,16.71
2022-10-12T07:50:34.436Z,16.75
2022-10-12T07:51:34.381Z,16.70
2022-10-12T07:52:34.330Z,16.67
2022-10-12T07:53:34.274Z,16.67
2022-10-12T07:54:34.225Z,16.70
2022-10-12T07:55:34.167Z,16.70
2022-10-12T07:56:34.119Z,16.70
2022-10-12T07:57:34.062Z,16.73
2022-10-12T07:58:34.012Z,16.68
2022-10-12T07:59:33.954Z,16.59
2022-10-12T08:00:33.958Z,16.65
2022-10-12T08:01:33.936Z,16.73
2022-10-12T08:02:33.797Z,16.73
2022-10-12T08:03:33.742Z,16.70
2022-10-12T08:04:33.698Z,16.71
2022-10-12T08:05:33.639Z,16.73
2022-10-12T08:06:33.584Z,16.67
2022-10-12T08:07:33.529Z,16.73
2022-10-12T08:08:33.481Z,16.73
2022-10-12T08:09:33.423Z,16.67
2022-10-12T08:10:33.374Z,16.77
2022-10-12T08:11:33.316Z,16.71
2022-10-12T08:12:33.267Z,16.74
2022-10-12T08:13:33.211Z,16.73
2022-10-12T08:14:33.160Z,16.74
2022-10-12T08:15:33.107Z,16.77
2022-10-12T08:16:33.056Z,16.75
2022-10-12T08:17:33.011Z,16.77
2022-10-12T08:18:32.949Z,16.81
2022-10-12T08:19:35.319Z,16.75
2022-10-12T08:20:32.839Z,16.80
2022-10-12T08:21:32.786Z,16.73
2022-10-12T08:22:32.734Z,16.77
2022-10-12T08:23:32.694Z,16.75
2022-10-12T08:24:32.627Z,16.77
2022-10-12T08:25:32.578Z,16.75
2022-10-12T08:26:32.521Z,16.78
2022-10-12T08:27:32.470Z,16.81
2022-10-12T08:28:32.451Z,16.81
2022-10-12T08:29:32.361Z,16.77
2022-10-12T08:30:32.308Z,16.83
2022-10-12T08:31:32.255Z,16.81
2022-10-12T08:32:32.204Z,16.85
2022-10-12T08:33:32.157Z,16.73
2022-10-12T08:34:32.095Z,16.73
2022-10-12T08:35:32.041Z,16.81
2022-10-12T08:36:31.991Z,16.83
2022-10-12T08:37:31.935Z,16.85
2022-10-12T08:38:31.885Z,16.86
2022-10-12T08:39:31.827Z,16.89
2022-10-12T08:40:31.777Z,16.74
2022-10-12T08:41:31.725Z,16.90
2022-10-12T08:42:31.672Z,16.89
2022-10-12T08:43:31.615Z,16.83
2022-10-12T08:44:31.566Z,16.89
2022-10-12T08:45:31.515Z,16.93
2022-10-12T08:46:31.458Z,16.93
2022-10-12T08:47:31.404Z,16.88
2022-10-12T08:48:31.351Z,16.92
2022-10-12T08:49:31.318Z,16.88
2022-10-12T08:50:31.245Z,16.93
2022-10-12T08:51:31.192Z,16.89
2022-10-12T08:52:31.140Z,16.88
2022-10-12T08:53:31.084Z,16.86
2022-10-12T08:54:31.034Z,16.93
2022-10-12T08:55:30.977Z,16.88
2022-10-12T08:56:30.926Z,16.89
2022-10-12T08:57:30.991Z,16.92
2022-10-12T08:58:30.826Z,16.99
2022-10-12T08:59:30.767Z,16.96
2022-10-12T09:00:30.825Z,16.93
2022-10-12T09:01:30.723Z,16.89
2022-10-12T09:02:30.611Z,16.99
2022-10-12T09:03:30.554Z,16.99
2022-10-12T09:04:30.502Z,16.89
2022-10-12T09:05:30.454Z,16.93
2022-10-12T09:06:30.395Z,16.88
2022-10-12T09:07:30.338Z,16.98
2022-10-12T09:08:30.289Z,16.98
2022-10-12T09:09:30.243Z,16.89
2022-10-12T09:10:30.183Z,16.95
2022-10-12T09:11:30.129Z,16.88
2022-10-12T09:12:30.076Z,17.03
2022-10-12T09:13:30.024Z,16.96
2022-10-12T09:14:29.993Z,17.00
2022-10-12T09:15:29.916Z,16.96
2022-10-12T09:16:29.863Z,16.98
2022-10-12T09:17:29.811Z,17.06
2022-10-12T09:18:29.758Z,17.03
2022-10-12T09:19:29.703Z,17.04
2022-10-12T09:20:29.654Z,17.04
2022-10-12T09:21:29.651Z,16.98
2022-10-12T09:22:29.548Z,16.96
2022-10-12T09:23:29.532Z,16.98
2022-10-12T09:24:29.440Z,17.04
2022-10-12T09:25:29.385Z,17.00
2022-10-12T09:26:29.332Z,16.99
2022-10-12T09:27:29.276Z,17.00
2022-10-12T09:28:29.269Z,17.00
2022-10-12T09:29:29.171Z,16.98
2022-10-12T09:30:29.121Z,16.98
2022-10-12T09:31:29.065Z,16.98
2022-10-12T09:32:29.015Z,17.00
2022-10-12T09:33:28.959Z,16.98
2022-10-12T09:34:28.908Z,16.96
2022-10-12T09:35:28.865Z,17.00
2022-10-12T09:36:28.800Z,16.93
2022-10-12T09:37:28.751Z,16.99
2022-10-12T09:38:28.695Z,16.98
2022-10-12T09:39:29.283Z,17.00
2022-10-12T09:40:28.589Z,17.00
2022-10-12T09:41:28.536Z,16.98
2022-10-12T09:42:28.482Z,16.96
2022-10-12T09:43:28.431Z,16.98
2022-10-12T09:44:28.375Z,16.96
2022-10-12T09:45:28.322Z,17.00
2022-10-12T09:46:28.272Z,17.00
2022-10-12T09:47:28.217Z,17.00
2022-10-12T09:48:28.170Z,17.00
2022-10-12T09:49:28.110Z,17.03
2022-10-12T09:50:28.058Z,17.08
2022-10-12T09:51:28.005Z,16.98
2022-10-12T09:52:27.949Z,16.98
2022-10-12T09:53:27.905Z,17.04
2022-10-12T09:54:27.849Z,17.00
2022-10-12T09:56:27.741Z,16.99
2022-10-12T09:57:27.686Z,17.00
2022-10-12T09:58:27.632Z,16.98
2022-10-12T09:59:27.580Z,17.00
2022-10-12T10:00:27.527Z,17.03
2022-10-12T10:01:27.596Z,16.98
2022-10-12T10:02:27.419Z,17.06
2022-10-12T10:03:31.433Z,17.11
2022-10-12T10:04:27.313Z,17.03
2022-10-12T10:05:27.264Z,17.04
2022-10-12T10:06:27.209Z,17.00
2022-10-12T10:07:27.155Z,16.99
2022-10-12T10:08:27.106Z,17.00
2022-10-12T10:09:27.057Z,17.10
2022-10-12T10:10:30.488Z,16.98
2022-10-12T10:11:26.944Z,17.00
2022-10-12T10:12:26.889Z,17.00
2022-10-12T10:13:26.838Z,17.13
2022-10-12T10:14:26.787Z,17.13
2022-10-12T10:15:26.731Z,17.04
2022-10-12T10:16:26.678Z,17.06
2022-10-12T10:17:26.624Z,17.04
2022-10-12T10:18:26.571Z,17.00
2022-10-12T10:19:26.519Z,16.98
2022-10-12T10:20:26.464Z,17.10
2022-10-12T10:21:26.416Z,17.10
2022-10-12T10:22:26.365Z,17.11
2022-10-12T10:23:26.309Z,17.14
2022-10-12T10:24:26.255Z,16.98
2022-10-12T10:25:26.207Z,17.10
2022-10-12T10:26:26.148Z,17.13
2022-10-12T10:27:26.094Z,17.03
2022-10-12T10:28:26.114Z,17.14
2022-10-12T10:29:25.988Z,17.08
2022-10-12T10:30:33.576Z,17.08
2022-10-12T10:31:25.882Z,17.11
2022-10-12T10:32:25.836Z,17.07
2022-10-12T10:33:25.778Z,17.11
2022-10-12T10:34:25.724Z,17.14
2022-10-12T10:35:25.671Z,17.10
2022-10-12T10:36:25.615Z,17.06
2022-10-12T10:37:25.566Z,17.10
2022-10-12T10:38:25.509Z,17.08
2022-10-12T10:39:25.457Z,17.10
2022-10-12T10:40:25.403Z,17.00
2022-10-12T10:41:25.361Z,17.08
2022-10-12T10:42:25.300Z,17.08
2022-10-12T10:43:25.251Z,17.10
2022-10-12T10:44:25.191Z,17.08
2022-10-12T10:45:25.140Z,17.08
2022-10-12T10:46:25.088Z,17.08
2022-10-12T10:47:25.032Z,17.13
2022-10-12T10:48:24.980Z,17.15
2022-10-12T10:49:24.929Z,17.11
2022-10-12T10:50:24.873Z,17.06
2022-10-12T10:51:24.826Z,17.18
2022-10-12T10:52:24.767Z,17.11
2022-10-12T10:53:24.715Z,17.10
2022-10-12T10:54:24.667Z,17.11
2022-10-12T10:55:24.608Z,17.14
2022-10-12T10:56:24.555Z,17.14
2022-10-12T10:57:24.549Z,17.13
2022-10-12T10:58:24.448Z,17.14
2022-10-12T10:59:24.396Z,17.11
2022-10-12T11:00:38.434Z,17.18
2022-10-12T11:01:24.312Z,17.14
2022-10-12T11:02:24.243Z,17.18
2022-10-12T11:03:24.191Z,17.15
2022-10-12T11:04:24.132Z,17.08
2022-10-12T11:05:24.082Z,17.18
2022-10-12T11:06:24.030Z,17.13
2022-10-12T11:07:23.983Z,17.14
2022-10-12T11:08:23.919Z,17.18
2022-10-12T11:09:23.869Z,17.15
2022-10-12T11:10:23.820Z,17.10
2022-10-12T11:11:23.761Z,17.18
2022-10-12T11:12:27.343Z,17.10
2022-10-12T11:13:23.662Z,17.11
2022-10-12T11:14:23.616Z,17.13
2022-10-12T11:15:23.553Z,17.14
2022-10-12T11:16:23.501Z,17.10
2022-10-12T11:17:23.443Z,17.18
2022-10-12T11:18:23.389Z,17.14
2022-10-12T11:19:23.350Z,17.11
2022-10-12T11:20:23.283Z,17.17
2022-10-12T11:21:23.233Z,17.08
2022-10-12T11:22:23.180Z,17.14
2022-10-12T11:23:23.125Z,17.10
2022-10-12T11:24:23.070Z,17.14
2022-10-12T11:25:23.023Z,17.13
2022-10-12T11:26:22.964Z,17.10
2022-10-12T11:27:22.912Z,17.10
2022-10-12T11:28:22.911Z,17.10
2022-10-12T11:29:22.863Z,17.10
2022-10-12T11:30:22.755Z,17.15
2022-10-12T11:31:22.701Z,17.14
2022-10-12T11:32:23.027Z,17.13
2022-10-12T11:33:22.595Z,17.17
2022-10-12T11:34:22.542Z,17.15
2022-10-12T11:35:22.499Z,17.17
2022-10-12T11:36:22.435Z,17.15
2022-10-12T11:37:22.389Z,17.20
2022-10-12T11:38:22.331Z,17.18
2022-10-12T11:39:22.895Z,17.17
2022-10-12T11:40:30.945Z,17.13
2022-10-12T11:41:37.491Z,17.15
2022-10-12T11:42:22.825Z,17.11
2022-10-12T11:43:22.070Z,17.15
2022-10-12T11:44:24.134Z,17.15
2022-10-12T11:45:22.059Z,17.15
2022-10-12T11:46:21.909Z,17.20
2022-10-12T11:47:21.854Z,17.18
2022-10-12T11:48:26.270Z,17.15
2022-10-12T11:49:21.746Z,17.15
2022-10-12T11:50:21.694Z,17.15
2022-10-12T11:51:21.641Z,17.13
2022-10-12T11:52:26.306Z,17.22
2022-10-12T11:53:21.558Z,17.20
2022-10-12T11:54:21.482Z,17.20
2022-10-12T11:55:21.429Z,17.18
2022-10-12T11:56:21.379Z,17.18
2022-10-12T11:57:21.323Z,17.18
2022-10-12T11:58:31.521Z,17.20
2022-10-12T11:59:21.216Z,17.18
2022-10-12T12:00:21.162Z,17.22
2022-10-12T12:01:21.232Z,17.22
2022-10-12T12:02:21.059Z,17.23
2022-10-12T12:03:21.086Z,17.23
2022-10-12T12:05:20.899Z,17.20
2022-10-12T12:06:20.847Z,17.22
2022-10-12T12:07:20.795Z,17.22
2022-10-12T12:08:20.803Z,17.22
2022-10-12T12:09:20.689Z,17.20
2022-10-12T12:10:20.634Z,17.22
2022-10-12T12:11:20.581Z,17.23
2022-10-12T12:12:20.530Z,17.22
2022-10-12T12:13:20.508Z,17.17
2022-10-12T12:14:20.422Z,17.22
2022-10-12T12:15:20.370Z,17.22
2022-10-12T12:16:20.318Z,17.22
2022-10-12T12:17:20.302Z,17.26
2022-10-12T12:18:20.221Z,17.23
2022-10-12T12:19:20.158Z,17.23
2022-10-12T12:20:20.102Z,17.18
2022-10-12T12:21:20.053Z,17.26
2022-10-12T12:22:19.999Z,17.28
2022-10-12T12:23:19.945Z,17.29
2022-10-12T12:24:19.892Z,17.23
2022-10-12T12:25:19.840Z,17.18
2022-10-12T12:26:19.786Z,17.22
2022-10-12T12:27:40.731Z,17.20
2022-10-12T12:28:19.750Z,17.26
2022-10-12T12:29:19.627Z,17.23
2022-10-12T12:30:19.577Z,17.23
2022-10-12T12:31:19.522Z,17.28
2022-10-12T12:32:19.473Z,17.22
2022-10-12T12:33:19.425Z,17.25
2022-10-12T12:34:19.365Z,17.26
2022-10-12T12:35:19.308Z,17.26
2022-10-12T12:36:19.257Z,17.23
2022-10-12T12:37:19.203Z,17.26
2022-10-12T12:38:19.152Z,17.30
2022-10-12T12:39:19.100Z,17.28
2022-10-12T12:40:19.046Z,17.29
2022-10-12T12:41:18.994Z,17.30
2022-10-12T12:42:18.942Z,17.35
2022-10-12T12:43:18.888Z,17.28
2022-10-12T12:44:18.835Z,17.30
2022-10-12T12:45:18.780Z,17.38
2022-10-12T12:46:18.728Z,17.35
2022-10-12T12:47:45.026Z,17.32
2022-10-12T12:48:21.878Z,17.33
2022-10-12T12:49:18.577Z,17.33
2022-10-12T12:50:18.517Z,17.38
2022-10-12T12:51:18.462Z,17.30
2022-10-12T12:52:18.411Z,17.36
2022-10-12T12:53:18.363Z,17.33
2022-10-12T12:54:18.307Z,17.38